Language: 


Des rapports , des résumés tant et plus, au choix de chacun....


Données statistiques de la station
Quotidien Rapport Novembre 20, 2017 Unités:  Métrique    Anglais   les deux
« Précédent Jour
Suivant Jour »
Quotidien Hebdomadaire Mensuel Annuel Actuel
  Haut: Bas: Moyen:
Température: 12.5 °C 0.0 °C 7.3 °C
Pt de rosée: 13.0 °C 1.0 °C 7.5 °C
Humidité: 98 % 0 % 98 %
Vitesse du vent: 25.9 km/h 0.0 km/h 8.3 km/h
Rafales: 31.4 km/h - -
Vent:- - WSW
Pression: 1023.9 hPa 0.0 hPa -
Précipitation: 7.9 mm    
Historical Graphs
 
 
Données statistiques pour Novembre 20, 2017
Heure Température Point de rosée Pression Vent Vitesse du vent Refales Humidité Pluie (taux horaire)
00:02 2.1 °C 2.0 °C 1023.9 hPa West 1.4 km/h 1.4 km/h 98 % 0.0 mm
00:12 2.1 °C 2.0 °C 1022.9 hPa West 1.4 km/h 1.4 km/h 98 % 0.0 mm
00:22 2.1 °C 2.0 °C 1022.9 hPa West 1.4 km/h 1.4 km/h 98 % 0.0 mm
00:27 2.0 °C 2.0 °C 1022.9 hPa West 1.4 km/h 1.4 km/h 98 % 0.0 mm
00:32 1.9 °C 2.0 °C 1022.9 hPa West 1.4 km/h 1.4 km/h 98 % 0.0 mm
00:37 1.7 °C 2.0 °C 1022.9 hPa West 1.4 km/h 1.4 km/h 98 % 0.0 mm
00:42 1.6 °C 2.0 °C 1022.9 hPa West 1.4 km/h 1.4 km/h 98 % 0.0 mm
00:47 1.5 °C 2.0 °C 1022.9 hPa West 1.4 km/h 1.4 km/h 98 % 0.0 mm
00:52 1.4 °C 1.0 °C 1022.9 hPa West 1.4 km/h 1.4 km/h 98 % 0.0 mm
00:57 1.3 °C 1.0 °C 1022.9 hPa West 1.4 km/h 1.4 km/h 98 % 0.0 mm
01:02 1.1 °C 1.0 °C 1022.9 hPa West 1.4 km/h 1.4 km/h 98 % 0.0 mm
01:07 1.1 °C 1.0 °C 1022.9 hPa West 1.4 km/h 1.4 km/h 98 % 0.0 mm
01:22 1.1 °C 1.0 °C 1021.9 hPa West 1.4 km/h 1.4 km/h 98 % 0.0 mm
01:27 1.0 °C 1.0 °C 1021.9 hPa West 1.4 km/h 1.4 km/h 98 % 0.0 mm
01:37 1.0 °C 1.0 °C 1021.9 hPa West 1.4 km/h 1.4 km/h 98 % 0.0 mm
01:47 0.9 °C 1.0 °C 1021.9 hPa West 1.4 km/h 1.4 km/h 98 % 0.0 mm
01:53 0.9 °C 1.0 °C 1021.9 hPa West 1.4 km/h 1.4 km/h 98 % 0.0 mm
01:58 0.9 °C 1.0 °C 1020.9 hPa West 1.4 km/h 1.4 km/h 98 % 0.0 mm
02:03 1.0 °C 1.0 °C 1020.9 hPa West 1.4 km/h 1.4 km/h 98 % 0.0 mm
02:18 1.0 °C 1.0 °C 1019.9 hPa West 1.4 km/h 1.4 km/h 98 % 0.0 mm
02:23 1.0 °C 1.0 °C 1019.9 hPa West 1.4 km/h 1.4 km/h 98 % 0.0 mm
02:31 1.1 °C 1.0 °C 1020.9 hPa West 1.4 km/h 1.4 km/h 98 % 0.0 mm
02:36 1.0 °C 1.0 °C 1020.9 hPa West 1.4 km/h 1.4 km/h 98 % 0.0 mm
02:41 1.0 °C 1.0 °C 1019.9 hPa West 1.4 km/h 1.4 km/h 98 % 0.0 mm
02:51 1.0 °C 1.0 °C 1019.9 hPa West 1.4 km/h 1.4 km/h 98 % 0.0 mm
02:56 1.0 °C 1.0 °C 1020.9 hPa West 1.4 km/h 1.4 km/h 98 % 0.0 mm
03:02 0.0 °C 1.0 °C 0.0 hPa Calm     0 % 0.0 mm
03:07 1.1 °C 1.0 °C 1020.9 hPa Calm     98 % 0.0 mm
03:12 1.1 °C 1.0 °C 1020.9 hPa Calm     98 % 0.0 mm
03:59 1.7 °C 2.0 °C 1020.9 hPa Calm     98 % 0.0 mm
04:09 1.7 °C 2.0 °C 1020.9 hPa Calm     98 % 0.0 mm
04:14 1.7 °C 2.0 °C 1019.9 hPa Calm     98 % 0.0 mm
04:24 1.7 °C 2.0 °C 1019.9 hPa Calm     98 % 0.0 mm
04:29 1.7 °C 2.0 °C 1019.9 hPa Calm     98 % 0.0 mm
04:41 1.7 °C 2.0 °C 1019.9 hPa Calm     98 % 0.0 mm
04:46 1.7 °C 2.0 °C 1019.9 hPa Calm     98 % 0.0 mm
04:51 1.7 °C 2.0 °C 1019.9 hPa Calm     98 % 0.0 mm
05:01 1.7 °C 2.0 °C 1018.8 hPa Calm     98 % 0.0 mm
05:06 1.7 °C 2.0 °C 1018.8 hPa Calm     98 % 0.0 mm
05:11 1.8 °C 2.0 °C 1018.8 hPa Calm     98 % 0.0 mm
05:16 1.9 °C 2.0 °C 1018.8 hPa Calm     98 % 0.0 mm
05:21 2.0 °C 2.0 °C 1018.8 hPa Calm     98 % 0.0 mm
05:26 2.0 °C 2.0 °C 1018.8 hPa Calm     98 % 0.0 mm
05:31 2.1 °C 2.0 °C 1018.8 hPa Calm     98 % 0.0 mm
05:41 2.3 °C 3.0 °C 1018.8 hPa Calm     98 % 0.0 mm
05:46 2.4 °C 3.0 °C 1018.8 hPa Calm     98 % 0.0 mm
05:51 2.5 °C 3.0 °C 1018.8 hPa Calm     98 % 0.0 mm
05:56 2.6 °C 3.0 °C 1018.2 hPa Calm     98 % 0.0 mm
06:01 2.6 °C 3.0 °C 1018.2 hPa Calm     98 % 0.0 mm
06:17 2.8 °C 3.0 °C 1018.8 hPa Calm     98 % 0.0 mm
06:22 2.9 °C 3.0 °C 1018.8 hPa Calm     98 % 0.0 mm
06:32 3.1 °C 3.0 °C 1018.8 hPa Calm     98 % 0.0 mm
06:37 3.2 °C 3.0 °C 1018.8 hPa Calm     98 % 0.0 mm
06:47 3.5 °C 4.0 °C 1018.8 hPa Calm     98 % 0.0 mm
06:57 3.7 °C 4.0 °C 1018.8 hPa Calm     98 % 0.0 mm
07:02 3.8 °C 4.0 °C 1018.8 hPa SSE 5.0 km/h 6.4 km/h 98 % 0.0 mm
07:07 3.8 °C 4.0 °C 1018.8 hPa South 4.7 km/h 6.4 km/h 98 % 0.0 mm
07:12 3.9 °C 4.0 °C 1018.8 hPa SSW 8.7 km/h 9.7 km/h 98 % 0.0 mm
07:17 4.0 °C 4.0 °C 1018.8 hPa SSE 4.7 km/h 9.7 km/h 98 % 0.0 mm
07:23 4.1 °C 4.0 °C 1018.8 hPa SW 5.5 km/h 7.9 km/h 98 % 0.0 mm
07:28 4.1 °C 4.0 °C 1018.8 hPa SW 5.8 km/h 7.9 km/h 98 % 0.0 mm
07:33 4.1 °C 4.0 °C 1018.8 hPa SW 6.1 km/h 10.1 km/h 98 % 0.0 mm
07:38 4.3 °C 4.0 °C 1018.8 hPa Calm   10.1 km/h 98 % 0.0 mm
07:43 4.4 °C 4.0 °C 1018.8 hPa SSW 6.9 km/h 9.3 km/h 98 % 0.0 mm
07:48 4.4 °C 4.0 °C 1018.8 hPa South 7.9 km/h 9.3 km/h 98 % 0.0 mm
07:53 4.4 °C 4.0 °C 1018.8 hPa SSW 9.3 km/h 9.3 km/h 98 % 0.0 mm
07:58 4.4 °C 4.0 °C 1018.8 hPa Calm   9.7 km/h 98 % 0.0 mm
08:03 4.4 °C 4.0 °C 1018.8 hPa SW 6.4 km/h 9.7 km/h 98 % 0.0 mm
08:08 4.4 °C 4.0 °C 1018.8 hPa Calm   8.7 km/h 98 % 0.0 mm
08:18 4.4 °C 4.0 °C 1018.8 hPa SSW 5.8 km/h 9.7 km/h 98 % 0.0 mm
08:23 4.4 °C 4.0 °C 1018.8 hPa South 6.9 km/h 10.5 km/h 98 % 0.0 mm
08:28 4.4 °C 4.0 °C 1018.8 hPa SSW 4.3 km/h 10.5 km/h 98 % 0.0 mm
08:33 4.4 °C 4.0 °C 1018.8 hPa South 5.0 km/h 10.1 km/h 98 % 0.0 mm
08:38 4.9 °C 5.0 °C 1018.8 hPa South 9.7 km/h 13.0 km/h 98 % 0.0 mm
08:43 4.9 °C 5.0 °C 1018.8 hPa South 5.0 km/h 13.0 km/h 98 % 0.0 mm
08:48 4.9 °C 5.0 °C 1018.8 hPa SSW 6.1 km/h 10.1 km/h 98 % 0.0 mm
08:53 4.9 °C 5.0 °C 1018.8 hPa SSW 2.1 km/h 10.1 km/h 98 % 0.0 mm
08:58 4.9 °C 5.0 °C 1018.2 hPa South 6.9 km/h 11.1 km/h 98 % 0.0 mm
09:03 4.9 °C 5.0 °C 1018.2 hPa SSW 9.0 km/h 14.0 km/h 98 % 0.0 mm
09:08 5.3 °C 6.0 °C 1018.2 hPa SW 4.7 km/h 14.0 km/h 98 % 0.0 mm
09:13 5.3 °C 6.0 °C 1018.2 hPa SW 7.2 km/h 11.9 km/h 98 % 0.0 mm
09:19 5.3 °C 6.0 °C 1018.2 hPa South 2.6 km/h 11.9 km/h 98 % 0.0 mm
09:29 5.6 °C 6.0 °C 1018.2 hPa South 7.6 km/h 9.3 km/h 98 % 0.0 mm
09:34 5.7 °C 6.0 °C 1018.2 hPa SSW 9.0 km/h 13.0 km/h 98 % 0.3 mm
09:39 5.8 °C 6.0 °C 1018.2 hPa SSW 2.1 km/h 13.0 km/h 98 % 0.3 mm
09:44 5.8 °C 6.0 °C 1018.2 hPa Calm   9.0 km/h 98 % 0.3 mm
09:49 6.0 °C 6.0 °C 1018.2 hPa SW 1.4 km/h 8.7 km/h 98 % 0.3 mm
10:04 6.2 °C 6.0 °C 1018.2 hPa Calm   6.1 km/h 98 % 0.3 mm
10:09 6.2 °C 6.0 °C 1018.2 hPa Calm   5.0 km/h 98 % 0.5 mm
10:24 6.4 °C 6.0 °C 1016.8 hPa Calm   4.3 km/h 98 % 0.5 mm
10:29 6.5 °C 7.0 °C 1016.8 hPa SSW 2.6 km/h 5.8 km/h 98 % 0.5 mm
10:39 6.7 °C 7.0 °C 1016.8 hPa WSW 5.0 km/h 9.7 km/h 98 % 0.5 mm
10:44 6.8 °C 7.0 °C 1016.8 hPa WSW 6.1 km/h 9.7 km/h 98 % 0.5 mm
10:50 6.9 °C 7.0 °C 1016.8 hPa WSW 7.9 km/h 10.1 km/h 98 % 0.5 mm
10:55 7.0 °C 7.0 °C 1016.8 hPa WSW 10.1 km/h 13.0 km/h 98 % 0.5 mm
11:00 7.1 °C 7.0 °C 1016.8 hPa Calm   13.0 km/h 98 % 0.5 mm
11:15 7.3 °C 7.0 °C 1016.8 hPa WSW 7.9 km/h 9.7 km/h 98 % 0.3 mm
11:20 7.4 °C 7.0 °C 1016.8 hPa SW 7.9 km/h 10.1 km/h 98 % 0.3 mm
11:25 7.4 °C 7.0 °C 1016.8 hPa SW 8.7 km/h 10.5 km/h 98 % 0.3 mm
11:30 7.5 °C 8.0 °C 1016.8 hPa SW 10.5 km/h 10.5 km/h 98 % 0.3 mm
11:35 7.7 °C 8.0 °C 1016.8 hPa WSW 9.3 km/h 11.9 km/h 98 % 0.3 mm
11:40 7.8 °C 8.0 °C 1016.8 hPa SW 6.9 km/h 12.6 km/h 98 % 0.3 mm
11:46 7.9 °C 8.0 °C 1016.8 hPa SW 10.1 km/h 12.6 km/h 98 % 0.3 mm
11:51 7.9 °C 8.0 °C 1016.8 hPa SW 9.3 km/h 11.9 km/h 98 % 0.3 mm
11:56 8.0 °C 8.0 °C 1016.8 hPa WSW 10.1 km/h 13.0 km/h 98 % 0.3 mm
12:01 8.1 °C 8.0 °C 1016.8 hPa SSW 9.3 km/h 14.0 km/h 98 % 0.3 mm
12:06 8.2 °C 8.0 °C 1016.8 hPa WSW 10.1 km/h 14.0 km/h 98 % 0.3 mm
12:11 8.3 °C 9.0 °C 1016.8 hPa SW 10.1 km/h 19.1 km/h 98 % 0.5 mm
12:16 8.5 °C 9.0 °C 1016.8 hPa WSW 5.5 km/h 19.1 km/h 98 % 0.5 mm
12:21 8.6 °C 9.0 °C 1016.8 hPa SW 10.1 km/h 16.6 km/h 98 % 0.5 mm
12:26 8.7 °C 9.0 °C 1016.1 hPa SW 6.1 km/h 16.6 km/h 98 % 0.5 mm
12:36 8.8 °C 9.0 °C 1016.1 hPa SW 6.1 km/h 14.0 km/h 98 % 0.8 mm
12:41 9.0 °C 9.0 °C 1016.1 hPa WSW 12.2 km/h 17.7 km/h 98 % 1.0 mm
12:51 9.1 °C 9.0 °C 1016.1 hPa SW 11.6 km/h 19.5 km/h 98 % 1.0 mm
13:01 9.2 °C 9.0 °C 1015.1 hPa South 11.9 km/h 15.4 km/h 98 % 1.3 mm
13:06 9.2 °C 9.0 °C 1015.1 hPa SW 10.1 km/h 15.4 km/h 98 % 1.3 mm
13:11 9.3 °C 9.0 °C 1015.1 hPa SW 10.5 km/h 14.0 km/h 98 % 1.0 mm
13:16 9.3 °C 9.0 °C 1015.1 hPa SSW 9.0 km/h 16.3 km/h 98 % 1.3 mm
13:21 9.4 °C 9.0 °C 1015.1 hPa SW 9.3 km/h 16.9 km/h 98 % 1.3 mm
13:26 9.5 °C 10.0 °C 1015.1 hPa SSW 9.7 km/h 16.9 km/h 98 % 1.3 mm
13:37 9.6 °C 10.0 °C 1015.1 hPa SSW 5.8 km/h 14.0 km/h 98 % 0.8 mm
13:52 9.8 °C 10.0 °C 1015.1 hPa SW 11.9 km/h 16.3 km/h 98 % 0.8 mm
13:57 9.9 °C 10.0 °C 1015.1 hPa SW 15.8 km/h 16.3 km/h 98 % 0.5 mm
14:02 9.9 °C 10.0 °C 1015.1 hPa WSW 12.6 km/h 17.2 km/h 98 % 0.5 mm
14:14 10.1 °C 10.0 °C 1015.1 hPa SW 11.6 km/h 16.9 km/h 98 % 0.3 mm
14:24 10.1 °C 10.0 °C 1015.1 hPa WSW 9.3 km/h 14.0 km/h 98 % 0.3 mm
14:54 10.2 °C 10.0 °C 1014.1 hPa SW 13.0 km/h 13.7 km/h 98 % 0.0 mm
14:59 10.2 °C 10.0 °C 1014.1 hPa WSW 12.2 km/h 13.7 km/h 98 % 0.0 mm
15:04 10.3 °C 10.0 °C 1014.1 hPa SW 6.9 km/h 13.0 km/h 98 % 0.3 mm
15:06 10.3 °C 10.0 °C 1014.1 hPa SW 7.9 km/h 13.0 km/h 98 % 0.3 mm
15:11 10.4 °C 10.0 °C 1014.1 hPa WSW 9.7 km/h 13.7 km/h 98 % 0.3 mm
15:16 10.4 °C 10.0 °C 1014.1 hPa SW 8.7 km/h 13.7 km/h 98 % 0.3 mm
15:21 10.4 °C 10.0 °C 1014.1 hPa WSW 13.0 km/h 13.0 km/h 98 % 0.3 mm
15:26 10.6 °C 11.0 °C 1014.1 hPa WSW 10.1 km/h 16.6 km/h 98 % 0.3 mm
15:31 10.6 °C 11.0 °C 1014.1 hPa WSW 15.4 km/h 16.9 km/h 98 % 0.3 mm
15:36 10.9 °C 11.0 °C 1014.1 hPa WSW 16.9 km/h 20.6 km/h 98 % 0.3 mm
15:47 11.1 °C 11.0 °C 1014.1 hPa WSW 16.3 km/h 23.0 km/h 98 % 0.3 mm
15:52 11.1 °C 11.0 °C 1014.1 hPa WSW 12.6 km/h 23.8 km/h 98 % 0.3 mm
15:53 11.1 °C 11.0 °C 1014.1 hPa WSW 14.0 km/h 23.8 km/h 98 % 0.3 mm
15:58 11.1 °C 11.0 °C 1014.1 hPa WSW 17.2 km/h 22.4 km/h 98 % 0.3 mm
16:03 11.1 °C 11.0 °C 1014.1 hPa SW 23.0 km/h 23.0 km/h 98 % 0.0 mm
16:13 11.1 °C 11.0 °C 1013.1 hPa WSW 14.0 km/h 20.9 km/h 98 % 0.0 mm
16:18 11.0 °C 11.0 °C 1013.1 hPa SW 10.1 km/h 20.9 km/h 98 % 0.0 mm
16:28 10.9 °C 11.0 °C 1013.1 hPa SW 9.0 km/h 12.2 km/h 98 % 0.0 mm
16:38 10.8 °C 11.0 °C 1013.1 hPa SW 10.5 km/h 14.0 km/h 98 % 0.0 mm
16:43 10.8 °C 11.0 °C 1013.1 hPa WSW 9.3 km/h 16.3 km/h 98 % 0.3 mm
16:48 10.8 °C 11.0 °C 1013.1 hPa WSW 12.2 km/h 16.3 km/h 98 % 0.3 mm
16:53 10.7 °C 11.0 °C 1013.1 hPa WSW 9.0 km/h 14.0 km/h 98 % 0.3 mm
16:58 10.7 °C 11.0 °C 1013.1 hPa SSW 10.5 km/h 13.7 km/h 98 % 0.8 mm
17:03 10.7 °C 11.0 °C 1013.1 hPa WSW 10.1 km/h 16.9 km/h 98 % 0.8 mm
17:08 10.7 °C 11.0 °C 1013.1 hPa SW 10.1 km/h 19.8 km/h 98 % 1.0 mm
17:13 10.7 °C 11.0 °C 1012.1 hPa WSW 19.5 km/h 19.8 km/h 98 % 1.0 mm
17:18 10.7 °C 11.0 °C 1012.1 hPa SSW 20.1 km/h 20.1 km/h 98 % 1.3 mm
17:24 10.7 °C 11.0 °C 1012.1 hPa WSW 17.7 km/h 20.1 km/h 98 % 1.5 mm
17:34 10.8 °C 11.0 °C 1013.1 hPa WSW 17.7 km/h 19.8 km/h 98 % 1.5 mm
17:39 10.8 °C 11.0 °C 1013.1 hPa SW 12.2 km/h 19.8 km/h 98 % 1.3 mm
17:44 10.8 °C 11.0 °C 1013.1 hPa WSW 9.7 km/h 17.2 km/h 98 % 1.3 mm
17:49 10.9 °C 11.0 °C 1013.1 hPa WSW 14.0 km/h 17.7 km/h 98 % 1.3 mm
17:54 10.9 °C 11.0 °C 1013.1 hPa WSW 18.0 km/h 18.0 km/h 98 % 1.3 mm
17:59 10.9 °C 11.0 °C 1013.1 hPa SW 12.2 km/h 18.0 km/h 98 % 0.8 mm
18:04 10.9 °C 11.0 °C 1013.1 hPa SSW 12.2 km/h 18.0 km/h 98 % 0.8 mm
18:09 10.9 °C 11.0 °C 1013.1 hPa WSW 11.9 km/h 17.7 km/h 98 % 0.5 mm
18:14 10.9 °C 11.0 °C 1013.1 hPa WSW 12.2 km/h 17.7 km/h 98 % 0.3 mm
18:19 11.0 °C 11.0 °C 1013.1 hPa SSW 13.7 km/h 17.7 km/h 98 % 0.3 mm
18:24 11.0 °C 11.0 °C 1013.1 hPa WSW 15.8 km/h 19.1 km/h 98 % 0.0 mm
18:29 11.1 °C 11.0 °C 1013.1 hPa West 12.2 km/h 19.1 km/h 98 % 0.0 mm
18:39 11.4 °C 11.0 °C 1013.1 hPa WSW 18.3 km/h 20.9 km/h 98 % 0.0 mm
18:49 11.6 °C 12.0 °C 1013.1 hPa West 12.6 km/h 21.2 km/h 98 % 0.3 mm
18:59 11.7 °C 12.0 °C 1012.1 hPa WSW 9.3 km/h 16.3 km/h 98 % 0.3 mm
19:04 11.7 °C 12.0 °C 1012.1 hPa West 20.1 km/h 23.8 km/h 98 % 0.3 mm
19:13 11.8 °C 12.0 °C 1012.1 hPa WSW 16.9 km/h 24.5 km/h 98 % 0.5 mm
19:18 11.8 °C 12.0 °C 1012.1 hPa WSW 20.1 km/h 28.5 km/h 98 % 0.8 mm
19:23 11.9 °C 12.0 °C 1012.1 hPa WNW 17.7 km/h 31.4 km/h 98 % 0.8 mm
19:28 11.9 °C 12.0 °C 1013.1 hPa WSW 24.5 km/h 31.4 km/h 98 % 1.3 mm
19:33 11.9 °C 12.0 °C 1013.1 hPa WSW 20.1 km/h 30.6 km/h 98 % 1.5 mm
19:39 11.9 °C 12.0 °C 1013.1 hPa West 20.6 km/h 23.8 km/h 98 % 1.5 mm
19:49 12.0 °C 12.0 °C 1013.1 hPa WSW 17.2 km/h 25.9 km/h 98 % 1.5 mm
19:54 12.0 °C 12.0 °C 1013.1 hPa WSW 18.0 km/h 23.8 km/h 98 % 1.8 mm
19:59 12.0 °C 12.0 °C 1012.1 hPa West 20.6 km/h 23.8 km/h 98 % 1.8 mm
20:04 11.9 °C 12.0 °C 1012.1 hPa WSW 12.2 km/h 20.6 km/h 98 % 1.8 mm
20:08 11.9 °C 12.0 °C 1012.1 hPa West 15.1 km/h 20.6 km/h 98 % 1.5 mm
20:13 11.9 °C 12.0 °C 1013.1 hPa WSW 13.0 km/h 20.9 km/h 98 % 1.5 mm
20:18 11.9 °C 12.0 °C 1013.1 hPa West 12.6 km/h 20.9 km/h 98 % 1.3 mm
20:28 11.9 °C 12.0 °C 1013.1 hPa WSW 14.0 km/h 20.1 km/h 98 % 0.8 mm
20:33 12.0 °C 12.0 °C 1013.1 hPa WSW 19.8 km/h 21.2 km/h 98 % 0.5 mm
20:53 12.1 °C 12.0 °C 1013.1 hPa West 15.8 km/h 20.6 km/h 98 % 0.0 mm
20:58 12.1 °C 12.0 °C 1013.1 hPa West 15.8 km/h 24.5 km/h 98 % 0.0 mm
21:03 12.2 °C 12.0 °C 1013.1 hPa West 12.2 km/h 24.5 km/h 98 % 0.0 mm
21:13 12.2 °C 12.0 °C 1013.1 hPa WSW 16.6 km/h 16.6 km/h 98 % 0.0 mm
21:33 12.3 °C 13.0 °C 1013.1 hPa WSW 14.3 km/h 20.1 km/h 98 % 0.0 mm
21:38 12.4 °C 13.0 °C 1013.1 hPa West 11.9 km/h 20.1 km/h 98 % 0.0 mm
21:43 12.4 °C 13.0 °C 1013.1 hPa West 17.7 km/h 20.6 km/h 98 % 0.0 mm
21:48 12.5 °C 13.0 °C 1013.1 hPa WSW 21.2 km/h 21.2 km/h 98 % 0.0 mm
21:53 12.5 °C 13.0 °C 1013.1 hPa WNW 20.6 km/h 23.0 km/h 98 % 0.3 mm
21:58 12.5 °C 13.0 °C 1012.1 hPa West 20.6 km/h 23.0 km/h 98 % 0.3 mm
21:59 12.5 °C 13.0 °C 1012.1 hPa SSW 16.3 km/h 23.0 km/h 98 % 0.3 mm
22:09 12.5 °C 13.0 °C 1012.1 hPa WSW 25.9 km/h 25.9 km/h 98 % 0.3 mm
22:14 12.5 °C 13.0 °C 1012.1 hPa WSW 16.6 km/h 25.9 km/h 98 % 0.3 mm
22:19 12.5 °C 13.0 °C 1012.1 hPa WSW 9.3 km/h 19.8 km/h 98 % 0.3 mm
22:29 12.5 °C 13.0 °C 1013.1 hPa West 17.7 km/h 24.5 km/h 98 % 0.3 mm
22:34 12.5 °C 13.0 °C 1013.1 hPa West 12.2 km/h 24.5 km/h 98 % 0.3 mm
22:39 12.5 °C 13.0 °C 1013.1 hPa West 12.2 km/h 20.6 km/h 98 % 0.3 mm
22:44 12.5 °C 13.0 °C 1013.1 hPa WSW 15.8 km/h 20.6 km/h 98 % 0.3 mm
22:50 12.5 °C 13.0 °C 1013.1 hPa West 11.6 km/h 19.8 km/h 98 % 0.0 mm
22:55 12.5 °C 13.0 °C 1013.1 hPa West 19.8 km/h 21.2 km/h 98 % 0.0 mm
23:00 12.5 °C 13.0 °C 1013.1 hPa WSW 9.3 km/h 28.5 km/h 98 % 0.0 mm
23:05 12.5 °C 13.0 °C 1013.1 hPa West 10.5 km/h 28.5 km/h 98 % 0.0 mm
23:20 12.5 °C 13.0 °C 1013.1 hPa WSW 12.6 km/h 21.9 km/h 98 % 0.3 mm
23:24 12.5 °C 13.0 °C 1013.1 hPa West 12.6 km/h 16.9 km/h 98 % 0.3 mm
23:40 12.4 °C 13.0 °C 1012.1 hPa WSW 9.7 km/h 11.9 km/h 98 % 0.5 mm
23:50 12.4 °C 13.0 °C 1013.1 hPa West 6.9 km/h 15.8 km/h 98 % 0.5 mm
23:54 12.4 °C 13.0 °C 1013.1 hPa WSW 9.0 km/h 15.8 km/h 98 % 0.5 mm
Le Gheer Warneton
Courtoisie de Weather Underground - 1.75 mb

Mise a jour : 17-12-17 07:17:12
Généré par Cumulus 1.9.4 (1099)